createdAt,value
2023-03-06T00:00:27.060Z,97578.88
2023-03-06T00:01:28.568Z,97584.41
2023-03-06T00:02:29.999Z,97581.47
2023-03-06T00:03:33.530Z,97573.88
2023-03-06T00:04:35.069Z,97573.44
2023-03-06T00:05:36.560Z,97569.75
2023-03-06T00:06:38.051Z,97574.41
2023-03-06T00:07:39.905Z,97569.94
2023-03-06T00:08:41.304Z,97576.38
2023-03-06T00:09:42.784Z,97577.47
2023-03-06T00:10:44.554Z,97572.66
2023-03-06T00:11:46.110Z,97570.06
2023-03-06T00:12:47.658Z,97568.84
2023-03-06T00:13:49.196Z,97568.44
2023-03-06T00:14:50.720Z,97563.44
2023-03-06T00:15:52.749Z,97563.97
2023-03-06T00:16:55.978Z,97564.50
2023-03-06T00:17:57.809Z,97560.72
2023-03-06T00:18:59.286Z,97559.75
2023-03-06T00:20:00.768Z,97556.16
2023-03-06T00:21:02.236Z,97563.97
2023-03-06T00:22:03.718Z,97549.19
2023-03-06T00:23:05.248Z,97554.81
2023-03-06T00:24:06.788Z,97556.38
2023-03-06T00:25:13.656Z,97559.50
2023-03-06T00:26:15.065Z,97549.00
2023-03-06T00:27:16.538Z,97546.81
2023-03-06T00:28:18.008Z,97544.09
2023-03-06T00:29:19.527Z,97553.84
2023-03-06T00:30:23.997Z,97543.53
2023-03-06T00:31:25.483Z,97551.78
2023-03-06T00:32:28.511Z,97551.38
2023-03-06T00:33:30.558Z,97548.88
2023-03-06T00:34:32.039Z,97548.13
2023-03-06T00:35:33.816Z,97549.84
2023-03-06T00:36:35.253Z,97548.66
2023-03-06T00:37:36.797Z,97545.72
2023-03-06T00:38:38.315Z,97543.88
2023-03-06T00:39:39.756Z,97542.78
2023-03-06T00:40:41.296Z,97543.00
2023-03-06T00:41:43.451Z,97546.94
2023-03-06T00:42:46.552Z,97532.03
2023-03-06T00:43:48.175Z,97537.91
2023-03-06T00:44:49.611Z,97532.91
2023-03-06T00:45:51.422Z,97530.38
2023-03-06T00:46:52.971Z,97533.66
2023-03-06T00:47:54.561Z,97530.31
2023-03-06T00:48:56.114Z,97526.69
2023-03-06T00:49:57.601Z,97531.72
2023-03-06T00:50:59.070Z,97523.44
2023-03-06T00:52:00.631Z,97525.41
2023-03-06T00:53:02.176Z,97519.84
2023-03-06T00:54:03.599Z,97523.53
2023-03-06T00:55:06.154Z,97518.78
2023-03-06T00:56:09.165Z,97530.72
2023-03-06T00:57:10.540Z,97518.03
2023-03-06T00:58:12.438Z,97514.44
2023-03-06T00:59:13.982Z,97511.81
2023-03-06T01:00:15.793Z,97514.53
2023-03-06T01:01:17.427Z,97515.06
2023-03-06T01:02:19.234Z,97517.13
2023-03-06T01:04:34.053Z,97513.97
2023-03-06T01:05:36.912Z,97507.13
2023-03-06T01:06:38.564Z,97506.94
2023-03-06T01:07:40.072Z,97496.28
2023-03-06T01:08:41.525Z,97504.00
2023-03-06T01:09:43.095Z,97499.44
2023-03-06T01:10:44.949Z,97501.28
2023-03-06T01:11:46.715Z,97492.88
2023-03-06T01:12:48.280Z,97502.56
2023-03-06T01:13:49.861Z,97498.63
2023-03-06T01:14:51.484Z,97495.28
2023-03-06T01:15:53.210Z,97486.69
2023-03-06T01:16:54.761Z,97491.03
2023-03-06T01:17:56.474Z,97487.78
2023-03-06T01:18:58.325Z,97494.06
2023-03-06T01:19:59.773Z,97487.97
2023-03-06T01:21:01.540Z,97488.31
2023-03-06T01:22:02.993Z,97487.97
2023-03-06T01:23:04.547Z,97484.06
2023-03-06T01:24:06.273Z,97488.66
2023-03-06T01:25:08.696Z,97489.00
2023-03-06T01:26:10.704Z,97485.63
2023-03-06T01:27:12.448Z,97480.41
2023-03-06T01:28:13.879Z,97480.53
2023-03-06T01:29:15.541Z,97478.78
2023-03-06T01:30:17.466Z,97478.91
2023-03-06T01:31:19.191Z,97476.28
2023-03-06T01:32:21.601Z,97479.31
2023-03-06T01:33:23.246Z,97469.44
2023-03-06T01:34:25.914Z,97472.50
2023-03-06T01:35:27.436Z,97476.84
2023-03-06T01:36:29.004Z,97471.63
2023-03-06T01:37:30.535Z,97473.56
2023-03-06T01:38:32.057Z,97470.19
2023-03-06T01:39:33.824Z,97467.06
2023-03-06T01:40:36.731Z,97466.19
2023-03-06T01:41:38.297Z,97467.06
2023-03-06T01:42:40.542Z,97463.13
2023-03-06T01:43:45.556Z,97460.06
2023-03-06T01:45:08.157Z,97459.78
2023-03-06T01:46:28.136Z,97464.75
2023-03-06T01:47:29.586Z,97454.00
2023-03-06T01:48:31.214Z,97451.38
2023-03-06T01:49:37.220Z,97451.16
2023-03-06T01:50:38.738Z,97452.25
2023-03-06T01:51:47.868Z,97452.25
2023-03-06T01:52:53.578Z,97455.09
2023-03-06T01:53:59.108Z,97455.66
2023-03-06T01:55:11.065Z,97444.44
2023-03-06T01:56:14.335Z,97445.06
2023-03-06T01:57:20.867Z,97442.69
2023-03-06T01:58:22.628Z,97437.38
2023-03-06T01:59:27.193Z,97437.81
2023-03-06T02:00:30.014Z,97439.31
2023-03-06T02:01:33.295Z,97435.84
2023-03-06T02:02:35.394Z,97437.69
2023-03-06T02:03:37.634Z,97439.19
2023-03-06T02:04:42.410Z,97441.16
2023-03-06T02:05:44.786Z,97429.53
2023-03-06T02:06:47.750Z,97443.31
2023-03-06T02:07:50.631Z,97435.72
2023-03-06T02:08:53.314Z,97430.22
2023-03-06T02:09:54.780Z,97435.53
2023-03-06T02:11:09.517Z,97431.72
2023-03-06T02:12:14.565Z,97437.38
2023-03-06T02:13:16.151Z,97431.72
2023-03-06T02:14:18.651Z,97429.00
2023-03-06T02:15:23.371Z,97434.56
2023-03-06T02:16:28.665Z,97430.00
2023-03-06T02:17:30.421Z,97435.13
2023-03-06T02:18:33.971Z,97427.72
2023-03-06T02:19:59.815Z,97432.72
2023-03-06T02:21:06.184Z,97425.97
2023-03-06T02:22:07.855Z,97425.63
2023-03-06T02:23:18.213Z,97419.56
2023-03-06T02:24:33.429Z,97429.66
2023-03-06T02:25:45.018Z,97428.59
2023-03-06T02:26:47.587Z,97425.75
2023-03-06T02:27:49.710Z,97418.91
2023-03-06T02:28:51.290Z,97423.72
2023-03-06T02:29:52.746Z,97420.34
2023-03-06T02:30:56.085Z,97416.94
2023-03-06T02:31:57.970Z,97418.81
2023-03-06T02:32:59.402Z,97414.50
2023-03-06T02:34:15.882Z,97424.13
2023-03-06T02:35:23.669Z,97415.88
2023-03-06T02:36:25.197Z,97412.84
2023-03-06T02:37:28.538Z,97412.84
2023-03-06T02:38:35.082Z,97412.94
2023-03-06T02:39:43.217Z,97413.81
2023-03-06T02:40:48.477Z,97406.75
2023-03-06T02:41:49.899Z,97402.63
2023-03-06T02:42:57.801Z,97405.00
2023-03-06T02:43:59.250Z,97400.97
2023-03-06T02:45:03.595Z,97398.03
2023-03-06T02:46:05.804Z,97396.94
2023-03-06T02:47:07.774Z,97400.72
2023-03-06T02:48:09.349Z,97398.03
2023-03-06T02:49:10.798Z,97396.59
2023-03-06T02:50:12.558Z,97397.13
2023-03-06T02:51:14.281Z,97394.84
2023-03-06T02:52:15.686Z,97396.59
2023-03-06T02:53:18.929Z,97401.63
2023-03-06T02:54:20.363Z,97395.22
2023-03-06T02:55:22.195Z,97390.34
2023-03-06T02:56:23.723Z,97390.03
2023-03-06T02:57:25.237Z,97389.94
2023-03-06T02:58:26.781Z,97388.19
2023-03-06T02:59:28.258Z,97393.94
2023-03-06T03:00:30.832Z,97387.50
2023-03-06T03:01:32.340Z,97382.41
2023-03-06T03:02:33.828Z,97390.34
2023-03-06T03:03:35.286Z,97376.53
2023-03-06T03:04:36.859Z,97382.41
2023-03-06T03:05:38.646Z,97383.50
2023-03-06T03:06:40.085Z,97377.19
2023-03-06T03:07:41.803Z,97375.78
2023-03-06T03:08:45.390Z,97374.47
2023-03-06T03:09:46.814Z,97377.53
2023-03-06T03:10:48.219Z,97374.06
2023-03-06T03:11:49.625Z,97372.53
2023-03-06T03:12:51.693Z,97373.81
2023-03-06T03:13:53.196Z,97372.84
2023-03-06T03:14:56.331Z,97367.97
2023-03-06T03:16:15.960Z,97369.47
2023-03-06T03:17:17.524Z,97365.34
2023-03-06T03:18:18.952Z,97375.56
2023-03-06T03:19:20.474Z,97367.63
2023-03-06T03:20:22.781Z,97369.84
2023-03-06T03:21:24.430Z,97369.06
2023-03-06T03:22:25.933Z,97374.94
2023-03-06T03:23:27.776Z,97372.22
2023-03-06T03:24:29.262Z,97372.09
2023-03-06T03:25:30.728Z,97367.19
2023-03-06T03:26:32.262Z,97365.66
2023-03-06T03:27:33.687Z,97366.00
2023-03-06T03:28:35.355Z,97362.31
2023-03-06T03:29:37.460Z,97361.31
2023-03-06T03:30:40.565Z,97368.47
2023-03-06T03:31:42.087Z,97359.81
2023-03-06T03:32:43.617Z,97365.25
2023-03-06T03:33:45.161Z,97362.41
2023-03-06T03:34:46.666Z,97360.78
2023-03-06T03:35:56.975Z,97363.06
2023-03-06T03:36:58.487Z,97362.97
2023-03-06T03:38:00.240Z,97361.03
2023-03-06T03:39:01.840Z,97360.91
2023-03-06T03:40:05.068Z,97362.53
2023-03-06T03:41:06.540Z,97353.31
2023-03-06T03:42:08.153Z,97359.50
2023-03-06T03:43:09.610Z,97363.28
2023-03-06T03:44:11.417Z,97360.69
2023-03-06T03:45:13.005Z,97356.03
2023-03-06T03:46:14.456Z,97353.44
2023-03-06T03:47:15.897Z,97356.16
2023-03-06T03:48:17.342Z,97352.34
2023-03-06T03:49:19.013Z,97353.75
2023-03-06T03:50:20.518Z,97346.72
2023-03-06T03:51:22.093Z,97348.88
2023-03-06T03:52:23.645Z,97346.72
2023-03-06T03:53:25.114Z,97348.31
2023-03-06T03:54:26.556Z,97350.47
2023-03-06T03:55:28.636Z,97348.31
2023-03-06T03:56:30.038Z,97339.31
2023-03-06T03:57:31.621Z,97338.31
2023-03-06T03:58:33.097Z,97348.41
2023-03-06T03:59:34.592Z,97339.06
2023-03-06T04:00:36.069Z,97342.44
2023-03-06T04:01:39.673Z,97345.16
2023-03-06T04:02:41.997Z,97336.59
2023-03-06T04:03:43.893Z,97331.25
2023-03-06T04:04:45.410Z,97327.78
2023-03-06T04:05:46.921Z,97327.22
2023-03-06T04:06:48.772Z,97338.19
2023-03-06T04:07:50.186Z,97329.84
2023-03-06T04:08:51.674Z,97326.69
2023-03-06T04:09:53.402Z,97325.38
2023-03-06T04:10:55.305Z,97320.56
2023-03-06T04:11:56.922Z,97327.41
2023-03-06T04:12:58.510Z,97316.13
2023-03-06T04:14:00.147Z,97323.53
2023-03-06T04:15:01.837Z,97317.63
2023-03-06T04:16:03.549Z,97320.81
2023-03-06T04:17:05.326Z,97316.22
2023-03-06T04:18:06.991Z,97310.28
2023-03-06T04:19:08.800Z,97314.03
2023-03-06T04:20:11.290Z,97314.56
2023-03-06T04:21:12.896Z,97308.72
2023-03-06T04:22:14.440Z,97304.66
2023-03-06T04:23:17.343Z,97306.53
2023-03-06T04:24:18.852Z,97301.53
2023-03-06T04:25:20.363Z,97296.84
2023-03-06T04:26:21.790Z,97295.47
2023-03-06T04:27:23.450Z,97301.13
2023-03-06T04:28:25.468Z,97304.66
2023-03-06T04:29:27.008Z,97303.50
2023-03-06T04:30:28.494Z,97300.56
2023-03-06T04:31:30.159Z,97301.31
2023-03-06T04:32:31.727Z,97300.91
2023-03-06T04:33:34.591Z,97299.38
2023-03-06T04:34:36.365Z,97305.00
2023-03-06T04:35:38.005Z,97300.56
2023-03-06T04:36:41.460Z,97305.13
2023-03-06T04:37:43.117Z,97305.22
2023-03-06T04:38:44.781Z,97313.16
2023-03-06T04:39:46.567Z,97310.34
2023-03-06T04:40:49.659Z,97301.88
2023-03-06T04:41:51.518Z,97306.22
2023-03-06T04:42:54.311Z,97301.69
2023-03-06T04:43:55.910Z,97308.13
2023-03-06T04:44:57.355Z,97303.75
2023-03-06T04:45:59.017Z,97299.44
2023-03-06T04:47:00.745Z,97295.22
2023-03-06T04:48:02.618Z,97296.31
2023-03-06T04:49:06.726Z,97298.69
2023-03-06T04:50:10.244Z,97296.72
2023-03-06T04:51:13.159Z,97291.22
2023-03-06T04:52:14.710Z,97295.16
2023-03-06T04:53:16.970Z,97291.47
2023-03-06T04:54:19.112Z,97291.25
2023-03-06T04:55:20.718Z,97293.22
2023-03-06T04:56:22.298Z,97289.63
2023-03-06T04:57:24.044Z,97293.09
2023-03-06T04:58:26.574Z,97287.00
2023-03-06T04:59:28.213Z,97287.22
2023-03-06T05:00:31.549Z,97285.84
2023-03-06T05:01:33.163Z,97283.75
2023-03-06T05:02:34.946Z,97277.56
2023-03-06T05:03:36.524Z,97287.47
2023-03-06T05:04:37.970Z,97286.78
2023-03-06T05:05:39.423Z,97283.41
2023-03-06T05:06:40.946Z,97282.78
2023-03-06T05:07:42.615Z,97285.50
2023-03-06T05:08:44.408Z,97277.28
2023-03-06T05:09:45.918Z,97284.09
2023-03-06T05:10:55.035Z,97281.34
2023-03-06T05:11:56.517Z,97283.00
2023-03-06T05:12:58.023Z,97282.03
2023-03-06T05:13:59.639Z,97281.69
2023-03-06T05:15:01.250Z,97281.38
2023-03-06T05:16:04.861Z,97287.47
2023-03-06T05:17:06.363Z,97278.66
2023-03-06T05:18:07.858Z,97279.34
2023-03-06T05:19:09.321Z,97285.97
2023-03-06T05:20:12.493Z,97279.44
2023-03-06T05:21:13.922Z,97275.06
2023-03-06T05:22:15.395Z,97283.13
2023-03-06T05:23:16.867Z,97275.81
2023-03-06T05:24:18.413Z,97277.31
2023-03-06T05:25:19.880Z,97285.25
2023-03-06T05:26:21.332Z,97285.03
2023-03-06T05:27:22.844Z,97284.09
2023-03-06T05:28:26.041Z,97280.63
2023-03-06T05:29:27.933Z,97276.94
2023-03-06T05:30:29.746Z,97281.22
2023-03-06T05:31:31.248Z,97273.94
2023-03-06T05:32:35.470Z,97280.34
2023-03-06T05:33:37.738Z,97278.72
2023-03-06T05:34:40.058Z,97271.47
2023-03-06T05:35:46.173Z,97268.75
2023-03-06T05:36:47.815Z,97270.72
2023-03-06T05:37:49.451Z,97272.97
2023-03-06T05:38:51.181Z,97278.38
2023-03-06T05:39:52.663Z,97271.66
2023-03-06T05:40:54.271Z,97274.03
2023-03-06T05:41:55.777Z,97274.56
2023-03-06T05:42:57.564Z,97271.97
2023-03-06T05:43:59.255Z,97270.44
2023-03-06T05:45:02.427Z,97272.47
2023-03-06T05:46:06.467Z,97271.31
2023-03-06T05:47:08.902Z,97265.84
2023-03-06T05:48:13.027Z,97269.00
2023-03-06T05:49:14.745Z,97265.06
2023-03-06T05:50:16.468Z,97269.84
2023-03-06T05:51:18.039Z,97262.88
2023-03-06T05:52:19.639Z,97268.09
2023-03-06T05:53:21.133Z,97271.22
2023-03-06T05:54:24.406Z,97266.78
2023-03-06T05:55:25.864Z,97260.56
2023-03-06T05:56:27.313Z,97260.22
2023-03-06T05:57:29.970Z,97261.56
2023-03-06T05:58:32.865Z,97260.03
2023-03-06T05:59:34.420Z,97252.88
2023-03-06T06:00:35.887Z,97251.78
2023-03-06T06:01:37.562Z,97258.22
2023-03-06T06:02:42.099Z,97254.84
2023-03-06T06:03:44.541Z,97253.34
2023-03-06T06:04:46.085Z,97252.34
2023-03-06T06:05:47.504Z,97259.59
2023-03-06T06:06:57.266Z,97258.44
2023-03-06T06:07:58.734Z,97255.63
2023-03-06T06:09:00.318Z,97254.00
2023-03-06T06:10:04.554Z,97257.81
2023-03-06T06:11:10.627Z,97255.38
2023-03-06T06:12:13.833Z,97250.75
2023-03-06T06:13:15.376Z,97254.53
2023-03-06T06:14:16.939Z,97243.78
2023-03-06T06:15:21.206Z,97249.31
2023-03-06T06:16:22.710Z,97258.31
2023-03-06T06:17:24.634Z,97250.50
2023-03-06T06:18:26.204Z,97245.81
2023-03-06T06:19:31.563Z,97248.03
2023-03-06T06:20:33.145Z,97241.56
2023-03-06T06:21:34.772Z,97243.22
2023-03-06T06:22:38.080Z,97242.31
2023-03-06T06:23:39.528Z,97243.47
2023-03-06T06:24:41.051Z,97239.47
2023-03-06T06:25:42.489Z,97240.97
2023-03-06T06:26:44.066Z,97244.03
2023-03-06T06:27:45.588Z,97238.88
2023-03-06T06:28:47.340Z,97245.66
2023-03-06T06:29:51.470Z,97244.47
2023-03-06T06:30:53.025Z,97239.78
2023-03-06T06:31:55.482Z,97240.56
2023-03-06T06:32:57.305Z,97248.13
2023-03-06T06:34:01.569Z,97241.06
2023-03-06T06:35:03.860Z,97244.09
2023-03-06T06:36:05.951Z,97242.94
2023-03-06T06:37:07.469Z,97240.56
2023-03-06T06:38:09.135Z,97244.25
2023-03-06T06:39:13.919Z,97247.38
2023-03-06T06:40:15.512Z,97246.47
2023-03-06T06:42:40.278Z,97242.97
2023-03-06T06:43:41.953Z,97247.66
2023-03-06T06:44:43.836Z,97240.31
2023-03-06T06:45:45.521Z,97244.44
2023-03-06T06:47:21.251Z,97247.63
2023-03-06T06:48:12.034Z,97247.16
2023-03-06T06:49:13.846Z,97243.34
2023-03-06T06:50:15.749Z,97244.09
2023-03-06T06:51:17.810Z,97251.09
2023-03-06T06:52:19.943Z,97252.63
2023-03-06T06:53:21.569Z,97249.03
2023-03-06T06:54:25.534Z,97246.63
2023-03-06T06:55:27.559Z,97254.84
2023-03-06T06:56:29.017Z,97247.78
2023-03-06T06:57:30.549Z,97250.13
2023-03-06T06:58:31.980Z,97249.91
2023-03-06T06:59:33.602Z,97251.84
2023-03-06T07:00:35.013Z,97258.22
2023-03-06T07:01:36.648Z,97257.81
2023-03-06T07:02:38.615Z,97249.69
2023-03-06T07:03:40.870Z,97253.22
2023-03-06T07:05:00.198Z,97252.13
2023-03-06T07:06:05.577Z,97252.16
2023-03-06T07:07:07.161Z,97256.09
2023-03-06T07:08:08.844Z,97262.19
2023-03-06T07:09:10.539Z,97262.38
2023-03-06T07:10:14.687Z,97262.56
2023-03-06T07:11:18.432Z,97262.25
2023-03-06T07:12:20.072Z,97264.81
2023-03-06T07:13:21.688Z,97263.16
2023-03-06T07:14:23.121Z,97262.94
2023-03-06T07:15:27.041Z,97265.88
2023-03-06T07:16:28.544Z,97262.41
2023-03-06T07:17:30.318Z,97266.19
2023-03-06T07:18:31.864Z,97264.41
2023-03-06T07:19:33.464Z,97270.16
2023-03-06T07:20:36.031Z,97270.03
2023-03-06T07:21:37.529Z,97269.47
2023-03-06T07:22:50.306Z,97266.13
2023-03-06T07:23:52.647Z,97263.53
2023-03-06T07:24:54.108Z,97268.19
2023-03-06T07:25:56.960Z,97271.00
2023-03-06T07:26:58.526Z,97266.25
2023-03-06T07:28:00.165Z,97269.28
2023-03-06T07:29:02.427Z,97263.16
2023-03-06T07:30:05.174Z,97266.81
2023-03-06T07:31:11.536Z,97259.44
2023-03-06T07:32:13.171Z,97264.41
2023-03-06T07:33:15.465Z,97259.59
2023-03-06T07:34:16.984Z,97257.50
2023-03-06T07:35:20.462Z,97260.47
2023-03-06T07:36:23.396Z,97260.03
2023-03-06T07:37:25.094Z,97259.88
2023-03-06T07:38:26.654Z,97267.78
2023-03-06T07:39:30.078Z,97270.31
2023-03-06T07:40:31.652Z,97266.69
2023-03-06T07:41:33.130Z,97269.00
2023-03-06T07:42:35.004Z,97268.13
2023-03-06T07:43:36.497Z,97266.25
2023-03-06T07:44:38.104Z,97270.78
2023-03-06T07:45:39.811Z,97269.13
2023-03-06T07:46:41.532Z,97266.94
2023-03-06T07:47:43.188Z,97262.06
2023-03-06T07:48:44.863Z,97268.56
2023-03-06T07:49:46.405Z,97267.91
2023-03-06T07:50:58.990Z,97269.00
2023-03-06T07:52:01.355Z,97274.78
2023-03-06T07:53:02.809Z,97273.59
2023-03-06T07:54:04.346Z,97269.56
2023-03-06T07:55:06.392Z,97269.47
2023-03-06T07:56:09.305Z,97272.16
2023-03-06T07:57:10.750Z,97275.00
2023-03-06T07:58:12.162Z,97272.00
2023-03-06T07:59:13.706Z,97273.75
2023-03-06T08:00:16.482Z,97270.31
2023-03-06T08:01:20.411Z,97272.66
2023-03-06T08:02:21.903Z,97278.59
2023-03-06T08:03:23.332Z,97277.94
2023-03-06T08:04:24.790Z,97273.22
2023-03-06T08:05:26.260Z,97276.22
2023-03-06T08:06:27.989Z,97276.31
2023-03-06T08:07:30.057Z,97272.53
2023-03-06T08:08:31.476Z,97280.44
2023-03-06T08:09:34.574Z,97276.38
2023-03-06T08:10:36.088Z,97277.00
2023-03-06T08:11:37.491Z,97281.41
2023-03-06T08:12:38.913Z,97273.63
2023-03-06T08:13:40.658Z,97279.56
2023-03-06T08:14:42.135Z,97276.59
2023-03-06T08:15:47.909Z,97283.09
2023-03-06T08:16:51.187Z,97279.91
2023-03-06T08:17:53.318Z,97280.25
2023-03-06T08:18:55.731Z,97270.63
2023-03-06T08:19:57.286Z,97273.97
2023-03-06T08:21:05.128Z,97279.47
2023-03-06T08:22:07.358Z,97279.63
2023-03-06T08:23:08.800Z,97275.75
2023-03-06T08:24:10.376Z,97280.31
2023-03-06T08:25:13.465Z,97279.97
2023-03-06T08:26:21.040Z,97285.13
2023-03-06T08:27:22.936Z,97284.41
2023-03-06T08:28:24.957Z,97282.00
2023-03-06T08:29:27.452Z,97280.22
2023-03-06T08:30:29.838Z,97285.03
2023-03-06T08:31:31.247Z,97280.66
2023-03-06T08:32:36.594Z,97284.69
2023-03-06T08:33:39.238Z,97291.94
2023-03-06T08:34:42.505Z,97283.19
2023-03-06T08:35:44.105Z,97284.78
2023-03-06T08:36:45.591Z,97291.94
2023-03-06T08:37:47.039Z,97287.41
2023-03-06T08:38:48.507Z,97292.34
2023-03-06T08:39:49.944Z,97281.84
2023-03-06T08:40:51.453Z,97283.59
2023-03-06T08:41:53.034Z,97282.25
2023-03-06T08:42:54.493Z,97284.84
2023-03-06T08:43:56.494Z,97284.94
2023-03-06T08:44:57.948Z,97291.94
2023-03-06T08:46:00.282Z,97294.13
2023-03-06T08:47:02.405Z,97283.78
2023-03-06T08:48:03.892Z,97288.38
2023-03-06T08:49:05.358Z,97283.66
2023-03-06T08:50:07.129Z,97287.91
2023-03-06T08:51:10.163Z,97285.03
2023-03-06T08:52:11.535Z,97290.84
2023-03-06T08:53:13.351Z,97294.78
2023-03-06T08:54:14.860Z,97290.75
2023-03-06T08:55:16.376Z,97287.34
2023-03-06T08:56:27.021Z,97289.16
2023-03-06T08:57:28.570Z,97292.16
2023-03-06T08:58:30.688Z,97289.56
2023-03-06T08:59:32.108Z,97283.09
2023-03-06T09:00:33.836Z,97285.09
2023-03-06T09:01:36.796Z,97295.72
2023-03-06T09:02:38.541Z,97284.22
2023-03-06T09:03:40.193Z,97290.13
2023-03-06T09:04:41.654Z,97295.72
2023-03-06T09:05:43.162Z,97294.34
2023-03-06T09:06:45.692Z,97287.75
2023-03-06T09:07:47.164Z,97288.22
2023-03-06T09:08:51.271Z,97297.84
2023-03-06T09:09:57.423Z,97286.41
2023-03-06T09:10:58.991Z,97289.63
2023-03-06T09:12:00.488Z,97281.81
2023-03-06T09:13:02.445Z,97291.75
2023-03-06T09:14:05.543Z,97292.59
2023-03-06T09:15:08.071Z,97287.56
2023-03-06T09:16:10.900Z,97287.13
2023-03-06T09:17:12.469Z,97286.94
2023-03-06T09:18:13.896Z,97288.81
2023-03-06T09:19:15.343Z,97289.22
2023-03-06T09:20:17.945Z,97288.13
2023-03-06T09:21:21.860Z,97286.00
2023-03-06T09:22:23.328Z,97288.38
2023-03-06T09:23:24.854Z,97288.22
2023-03-06T09:24:26.519Z,97287.22
2023-03-06T09:25:27.953Z,97287.81
2023-03-06T09:26:43.372Z,97286.22
2023-03-06T09:28:01.769Z,97290.16
2023-03-06T09:29:07.407Z,97290.44
2023-03-06T09:30:11.200Z,97287.28
2023-03-06T09:31:15.830Z,97287.03
2023-03-06T09:32:17.397Z,97278.63
2023-03-06T09:33:20.088Z,97285.34
2023-03-06T09:34:21.692Z,97285.84
2023-03-06T09:35:23.212Z,97274.81
2023-03-06T09:36:24.798Z,97288.44
2023-03-06T09:37:26.241Z,97290.66
2023-03-06T09:38:28.115Z,97284.72
2023-03-06T09:39:29.862Z,97290.81
2023-03-06T09:40:55.878Z,97287.66
2023-03-06T09:41:58.410Z,97284.78
2023-03-06T09:43:00.894Z,97281.09
2023-03-06T09:44:11.870Z,97282.25
2023-03-06T09:45:14.335Z,97279.63
2023-03-06T09:46:38.037Z,97284.38
2023-03-06T09:48:00.658Z,97283.09
2023-03-06T09:49:23.745Z,97288.78
2023-03-06T09:50:51.600Z,97289.28
2023-03-06T09:52:28.214Z,97294.84
2023-03-06T09:53:38.608Z,97280.75
2023-03-06T09:54:53.192Z,97277.78
2023-03-06T09:56:03.539Z,97282.31
2023-03-06T09:57:14.134Z,97281.50
2023-03-06T09:58:25.733Z,97281.50
2023-03-06T09:59:30.954Z,97284.53
2023-03-06T10:00:59.703Z,97281.97
2023-03-06T10:02:31.324Z,97274.56
2023-03-06T10:03:45.232Z,97285.28
2023-03-06T10:04:52.026Z,97285.78
2023-03-06T10:06:02.774Z,97288.53
2023-03-06T10:07:22.045Z,97286.31
2023-03-06T10:08:31.083Z,97291.28
2023-03-06T10:09:45.816Z,97290.56
2023-03-06T10:10:59.047Z,97293.97
2023-03-06T10:12:24.923Z,97295.00
2023-03-06T10:13:32.479Z,97296.28
2023-03-06T10:14:48.449Z,97299.06
2023-03-06T10:15:54.849Z,97297.31
2023-03-06T10:16:57.365Z,97301.28
2023-03-06T10:17:59.029Z,97300.09
2023-03-06T10:19:04.555Z,97302.03
2023-03-06T10:20:19.543Z,97290.47
2023-03-06T10:21:33.269Z,97296.16
2023-03-06T10:23:31.991Z,97298.50
2023-03-06T10:24:49.531Z,97291.81
2023-03-06T10:26:02.602Z,97306.16
2023-03-06T10:27:16.978Z,97305.91
2023-03-06T10:28:24.559Z,97302.53
2023-03-06T10:30:04.437Z,97309.94
2023-03-06T10:31:10.744Z,97306.22
2023-03-06T10:32:46.295Z,97299.41
2023-03-06T10:34:12.416Z,97300.75
2023-03-06T10:35:19.279Z,97295.28
2023-03-06T10:36:26.579Z,97302.34
2023-03-06T10:37:32.573Z,97293.63
2023-03-06T10:38:38.455Z,97300.66
2023-03-06T10:39:40.059Z,97299.66
2023-03-06T10:41:10.967Z,97296.22
2023-03-06T10:42:12.634Z,97300.34
2023-03-06T10:43:14.368Z,97300.78
2023-03-06T10:44:15.970Z,97292.34
2023-03-06T10:45:17.826Z,97294.78
2023-03-06T10:46:28.926Z,97301.34
2023-03-06T10:47:35.267Z,97310.09
2023-03-06T10:48:40.900Z,97297.72
2023-03-06T10:49:58.100Z,97308.50
2023-03-06T10:51:18.626Z,97296.38
2023-03-06T10:52:22.308Z,97300.50
2023-03-06T10:53:26.784Z,97306.16
2023-03-06T10:54:34.190Z,97302.34
2023-03-06T10:55:37.898Z,97299.13
2023-03-06T10:56:42.031Z,97305.19
2023-03-06T10:57:43.552Z,97293.06
2023-03-06T10:58:45.218Z,97297.75
2023-03-06T11:00:23.601Z,97298.94
2023-03-06T11:01:25.378Z,97292.91
2023-03-06T11:02:31.446Z,97294.72
2023-03-06T11:03:35.060Z,97297.75
2023-03-06T11:04:46.337Z,97296.91
2023-03-06T11:06:12.941Z,97293.63
2023-03-06T11:07:36.258Z,97294.72
2023-03-06T11:08:39.336Z,97292.59
2023-03-06T11:10:00.602Z,97291.91
2023-03-06T11:11:04.234Z,97290.38
2023-03-06T11:12:26.668Z,97283.53
2023-03-06T11:13:31.598Z,97282.63
2023-03-06T11:14:33.290Z,97274.38
2023-03-06T11:15:35.429Z,97282.00
2023-03-06T11:16:39.314Z,97279.09
2023-03-06T11:18:05.476Z,97282.16
2023-03-06T11:19:20.523Z,97280.16
2023-03-06T11:20:41.288Z,97273.84
2023-03-06T11:22:16.842Z,97278.78
2023-03-06T11:23:21.280Z,97281.06
2023-03-06T11:24:22.995Z,97275.97
2023-03-06T11:25:35.918Z,97275.00
2023-03-06T11:26:47.498Z,97269.91
2023-03-06T11:28:04.009Z,97264.47
2023-03-06T11:29:14.689Z,97267.66
2023-03-06T11:30:54.481Z,97269.69
2023-03-06T11:32:19.384Z,97265.91
2023-03-06T11:33:42.777Z,97264.78
2023-03-06T11:34:50.565Z,97267.56
2023-03-06T11:36:18.686Z,97263.69
2023-03-06T11:37:23.787Z,97262.00
2023-03-06T11:38:46.931Z,97267.41
2023-03-06T11:40:06.768Z,97260.47
2023-03-06T11:41:18.059Z,97260.31
2023-03-06T11:42:28.654Z,97264.47
2023-03-06T11:43:41.106Z,97259.00
2023-03-06T11:45:14.821Z,97261.25
2023-03-06T11:46:37.704Z,97255.09
2023-03-06T11:47:49.686Z,97257.25
2023-03-06T11:49:16.931Z,97255.16
2023-03-06T11:50:25.570Z,97254.03
2023-03-06T11:51:32.505Z,97248.78
2023-03-06T11:52:44.367Z,97248.59
2023-03-06T11:53:45.934Z,97250.91
2023-03-06T11:54:53.279Z,97248.41
2023-03-06T11:56:05.209Z,97234.34
2023-03-06T11:57:18.341Z,97233.41
2023-03-06T11:58:25.605Z,97237.97
2023-03-06T11:59:45.861Z,97230.94
2023-03-06T12:00:58.185Z,97233.16
2023-03-06T12:02:22.269Z,97239.97
2023-03-06T12:03:59.162Z,97244.56
2023-03-06T12:05:25.978Z,97241.91
2023-03-06T12:06:59.354Z,97242.25
2023-03-06T12:08:25.816Z,97242.22
2023-03-06T12:09:38.199Z,97243.38
2023-03-06T12:10:52.117Z,97238.41
2023-03-06T12:12:09.366Z,97234.50
2023-03-06T12:14:45.456Z,97228.22
2023-03-06T12:16:23.109Z,97234.38
2023-03-06T12:17:33.698Z,97227.16
2023-03-06T12:18:43.140Z,97228.47
2023-03-06T12:20:00.035Z,97227.94
2023-03-06T12:21:07.292Z,97223.63
2023-03-06T12:22:31.295Z,97227.50
2023-03-06T12:24:04.141Z,97222.69
2023-03-06T12:25:17.800Z,97222.69
2023-03-06T12:26:46.923Z,97222.63
2023-03-06T12:27:57.683Z,97225.19
2023-03-06T12:29:16.852Z,97214.91
2023-03-06T12:30:46.203Z,97213.34
2023-03-06T12:31:50.605Z,97215.53
2023-03-06T12:33:13.779Z,97212.44
2023-03-06T12:34:28.404Z,97206.75
2023-03-06T12:35:57.894Z,97210.84
2023-03-06T12:37:17.885Z,97197.47
2023-03-06T12:38:31.684Z,97206.47
2023-03-06T12:40:10.907Z,97204.16
2023-03-06T12:41:37.999Z,97201.66
2023-03-06T12:43:01.505Z,97207.06
2023-03-06T12:44:34.177Z,97201.97
2023-03-06T12:45:37.140Z,97203.16
2023-03-06T12:46:46.724Z,97208.31
2023-03-06T12:47:52.823Z,97208.38
2023-03-06T12:49:31.850Z,97194.81
2023-03-06T12:50:38.442Z,97206.06
2023-03-06T12:51:40.717Z,97199.09